sensor_id;sensor_type;location;lat;lon;timestamp;temperature;humidity
23560;DHT22;11958;50.836;4.438;2022-08-19T00:01:23;20.50;75.20
23560;DHT22;11958;50.836;4.438;2022-08-19T00:03:49;20.50;75.40
23560;DHT22;11958;50.836;4.438;2022-08-19T00:06:15;20.60;75.00
23560;DHT22;11958;50.836;4.438;2022-08-19T00:08:41;20.60;75.10
23560;DHT22;11958;50.836;4.438;2022-08-19T00:11:07;20.70;75.20
23560;DHT22;11958;50.836;4.438;2022-08-19T00:13:33;20.90;72.40
23560;DHT22;11958;50.836;4.438;2022-08-19T00:15:59;20.80;73.90
23560;DHT22;11958;50.836;4.438;2022-08-19T00:18:26;20.90;71.70
23560;DHT22;11958;50.836;4.438;2022-08-19T00:20:51;20.80;73.20
23560;DHT22;11958;50.836;4.438;2022-08-19T00:23:17;20.60;72.50
23560;DHT22;11958;50.836;4.438;2022-08-19T00:25:42;20.90;70.70
23560;DHT22;11958;50.836;4.438;2022-08-19T00:28:08;20.80;71.80
23560;DHT22;11958;50.836;4.438;2022-08-19T00:30:34;20.80;72.70
23560;DHT22;11958;50.836;4.438;2022-08-19T00:32:59;21.00;71.00
23560;DHT22;11958;50.836;4.438;2022-08-19T00:35:25;21.00;71.30
23560;DHT22;11958;50.836;4.438;2022-08-19T00:37:53;21.20;70.80
23560;DHT22;11958;50.836;4.438;2022-08-19T00:40:19;21.20;70.80
23560;DHT22;11958;50.836;4.438;2022-08-19T00:42:45;21.30;70.50
23560;DHT22;11958;50.836;4.438;2022-08-19T00:45:18;21.00;71.90
23560;DHT22;11958;50.836;4.438;2022-08-19T00:47:45;21.10;71.70
23560;DHT22;11958;50.836;4.438;2022-08-19T00:50:13;21.20;71.20
23560;DHT22;11958;50.836;4.438;2022-08-19T00:52:42;21.30;71.10
23560;DHT22;11958;50.836;4.438;2022-08-19T00:55:22;21.20;71.30
23560;DHT22;11958;50.836;4.438;2022-08-19T00:57:53;21.40;70.90
23560;DHT22;11958;50.836;4.438;2022-08-19T01:00:21;21.40;71.60
23560;DHT22;11958;50.836;4.438;2022-08-19T01:02:47;21.20;71.50
23560;DHT22;11958;50.836;4.438;2022-08-19T01:05:25;21.20;71.70
23560;DHT22;11958;50.836;4.438;2022-08-19T01:07:53;20.90;72.60
23560;DHT22;11958;50.836;4.438;2022-08-19T01:10:26;20.90;73.10
23560;DHT22;11958;50.836;4.438;2022-08-19T01:12:54;21.10;73.10
23560;DHT22;11958;50.836;4.438;2022-08-19T01:15:24;21.00;72.60
23560;DHT22;11958;50.836;4.438;2022-08-19T01:17:50;21.00;72.80
23560;DHT22;11958;50.836;4.438;2022-08-19T01:20:19;21.30;71.60
23560;DHT22;11958;50.836;4.438;2022-08-19T01:22:55;20.90;72.00
23560;DHT22;11958;50.836;4.438;2022-08-19T01:25:36;21.20;71.50
23560;DHT22;11958;50.836;4.438;2022-08-19T01:28:05;21.20;71.60
23560;DHT22;11958;50.836;4.438;2022-08-19T01:30:34;21.10;72.20
23560;DHT22;11958;50.836;4.438;2022-08-19T01:33:01;20.80;74.20
23560;DHT22;11958;50.836;4.438;2022-08-19T01:35:29;21.10;71.80
23560;DHT22;11958;50.836;4.438;2022-08-19T01:40:23;20.80;73.90
23560;DHT22;11958;50.836;4.438;2022-08-19T01:42:51;21.10;72.20
23560;DHT22;11958;50.836;4.438;2022-08-19T01:45:20;21.10;71.10
23560;DHT22;11958;50.836;4.438;2022-08-19T01:47:47;20.70;72.10
23560;DHT22;11958;50.836;4.438;2022-08-19T01:50:13;20.50;72.40
23560;DHT22;11958;50.836;4.438;2022-08-19T01:52:40;20.60;73.40
23560;DHT22;11958;50.836;4.438;2022-08-19T01:55:10;20.90;70.60
23560;DHT22;11958;50.836;4.438;2022-08-19T01:57:37;20.90;70.40
23560;DHT22;11958;50.836;4.438;2022-08-19T02:00:09;21.00;70.10
23560;DHT22;11958;50.836;4.438;2022-08-19T02:02:35;20.80;72.70
23560;DHT22;11958;50.836;4.438;2022-08-19T02:05:01;20.90;70.90
23560;DHT22;11958;50.836;4.438;2022-08-19T02:07:26;20.50;71.60
23560;DHT22;11958;50.836;4.438;2022-08-19T02:09:54;20.60;71.30
23560;DHT22;11958;50.836;4.438;2022-08-19T02:12:21;20.80;70.40
23560;DHT22;11958;50.836;4.438;2022-08-19T02:14:47;21.00;68.50
23560;DHT22;11958;50.836;4.438;2022-08-19T02:17:13;21.30;67.20
23560;DHT22;11958;50.836;4.438;2022-08-19T02:19:39;21.00;68.20
23560;DHT22;11958;50.836;4.438;2022-08-19T02:22:05;20.40;70.20
23560;DHT22;11958;50.836;4.438;2022-08-19T02:24:31;20.40;70.90
23560;DHT22;11958;50.836;4.438;2022-08-19T02:26:57;20.50;69.60
23560;DHT22;11958;50.836;4.438;2022-08-19T02:29:24;20.60;69.90
23560;DHT22;11958;50.836;4.438;2022-08-19T02:31:50;20.40;69.70
23560;DHT22;11958;50.836;4.438;2022-08-19T02:34:16;20.40;69.20
23560;DHT22;11958;50.836;4.438;2022-08-19T02:36:42;20.20;69.70
23560;DHT22;11958;50.836;4.438;2022-08-19T02:39:07;20.00;70.70
23560;DHT22;11958;50.836;4.438;2022-08-19T02:41:34;19.90;70.80
23560;DHT22;11958;50.836;4.438;2022-08-19T02:44:02;19.90;71.30
23560;DHT22;11958;50.836;4.438;2022-08-19T02:46:31;20.30;69.90
23560;DHT22;11958;50.836;4.438;2022-08-19T02:49:02;20.50;69.20
23560;DHT22;11958;50.836;4.438;2022-08-19T02:51:34;20.10;70.10
23560;DHT22;11958;50.836;4.438;2022-08-19T02:54:00;20.30;69.70
23560;DHT22;11958;50.836;4.438;2022-08-19T02:56:26;20.10;70.10
23560;DHT22;11958;50.836;4.438;2022-08-19T02:58:54;20.20;69.80
23560;DHT22;11958;50.836;4.438;2022-08-19T03:01:29;20.30;69.60
23560;DHT22;11958;50.836;4.438;2022-08-19T03:03:56;20.30;69.50
23560;DHT22;11958;50.836;4.438;2022-08-19T03:06:22;20.00;70.70
23560;DHT22;11958;50.836;4.438;2022-08-19T03:08:49;19.80;71.30
23560;DHT22;11958;50.836;4.438;2022-08-19T03:11:20;20.10;69.80
23560;DHT22;11958;50.836;4.438;2022-08-19T03:13:46;20.30;68.90
23560;DHT22;11958;50.836;4.438;2022-08-19T03:16:15;20.20;69.00
23560;DHT22;11958;50.836;4.438;2022-08-19T03:18:41;20.30;69.00
23560;DHT22;11958;50.836;4.438;2022-08-19T03:21:07;20.10;70.00
23560;DHT22;11958;50.836;4.438;2022-08-19T03:23:34;20.00;70.00
23560;DHT22;11958;50.836;4.438;2022-08-19T03:26:03;19.80;71.00
23560;DHT22;11958;50.836;4.438;2022-08-19T03:28:30;20.00;70.40
23560;DHT22;11958;50.836;4.438;2022-08-19T03:31:05;20.10;70.20
23560;DHT22;11958;50.836;4.438;2022-08-19T03:33:32;19.80;70.60
23560;DHT22;11958;50.836;4.438;2022-08-19T03:36:07;19.90;70.60
23560;DHT22;11958;50.836;4.438;2022-08-19T03:38:36;19.80;71.90
23560;DHT22;11958;50.836;4.438;2022-08-19T03:41:04;19.80;71.20
23560;DHT22;11958;50.836;4.438;2022-08-19T03:43:32;20.00;70.40
23560;DHT22;11958;50.836;4.438;2022-08-19T03:46:07;19.70;71.90
23560;DHT22;11958;50.836;4.438;2022-08-19T03:48:34;19.80;71.40
23560;DHT22;11958;50.836;4.438;2022-08-19T03:51:00;19.80;71.30
23560;DHT22;11958;50.836;4.438;2022-08-19T03:53:30;19.90;71.30
23560;DHT22;11958;50.836;4.438;2022-08-19T03:55:57;19.80;71.80
23560;DHT22;11958;50.836;4.438;2022-08-19T03:58:25;19.60;71.90
23560;DHT22;11958;50.836;4.438;2022-08-19T04:00:51;19.70;72.30
23560;DHT22;11958;50.836;4.438;2022-08-19T04:03:17;19.60;72.70
23560;DHT22;11958;50.836;4.438;2022-08-19T04:05:44;19.30;73.30
23560;DHT22;11958;50.836;4.438;2022-08-19T04:08:10;19.10;74.50
23560;DHT22;11958;50.836;4.438;2022-08-19T04:10:36;19.30;73.60
23560;DHT22;11958;50.836;4.438;2022-08-19T04:13:04;19.30;73.60
23560;DHT22;11958;50.836;4.438;2022-08-19T04:15:31;19.50;72.50
23560;DHT22;11958;50.836;4.438;2022-08-19T04:18:01;19.40;73.30
23560;DHT22;11958;50.836;4.438;2022-08-19T04:20:27;19.20;74.60
23560;DHT22;11958;50.836;4.438;2022-08-19T04:22:53;18.90;74.80
23560;DHT22;11958;50.836;4.438;2022-08-19T04:25:19;19.00;75.20
23560;DHT22;11958;50.836;4.438;2022-08-19T04:27:44;19.00;74.80
23560;DHT22;11958;50.836;4.438;2022-08-19T04:30:13;19.30;74.30
23560;DHT22;11958;50.836;4.438;2022-08-19T04:32:39;19.40;73.70
23560;DHT22;11958;50.836;4.438;2022-08-19T04:35:05;19.30;73.60
23560;DHT22;11958;50.836;4.438;2022-08-19T04:37:31;19.20;74.50
23560;DHT22;11958;50.836;4.438;2022-08-19T04:39:59;19.00;74.60
23560;DHT22;11958;50.836;4.438;2022-08-19T04:42:43;19.10;75.10
23560;DHT22;11958;50.836;4.438;2022-08-19T04:45:12;19.10;74.00
23560;DHT22;11958;50.836;4.438;2022-08-19T04:47:41;19.00;75.30
23560;DHT22;11958;50.836;4.438;2022-08-19T04:50:09;19.00;74.90
23560;DHT22;11958;50.836;4.438;2022-08-19T04:52:36;19.00;75.20
23560;DHT22;11958;50.836;4.438;2022-08-19T04:55:03;18.90;75.20
23560;DHT22;11958;50.836;4.438;2022-08-19T04:57:30;18.90;75.50
23560;DHT22;11958;50.836;4.438;2022-08-19T04:59:56;19.00;74.70
23560;DHT22;11958;50.836;4.438;2022-08-19T05:02:22;19.30;74.60
23560;DHT22;11958;50.836;4.438;2022-08-19T05:04:50;19.40;73.60
23560;DHT22;11958;50.836;4.438;2022-08-19T05:07:15;19.40;73.20
23560;DHT22;11958;50.836;4.438;2022-08-19T05:09:41;19.40;73.40
23560;DHT22;11958;50.836;4.438;2022-08-19T05:12:08;19.10;74.30
23560;DHT22;11958;50.836;4.438;2022-08-19T05:14:33;19.20;73.90
23560;DHT22;11958;50.836;4.438;2022-08-19T05:17:01;19.20;74.40
23560;DHT22;11958;50.836;4.438;2022-08-19T05:19:27;19.10;74.70
23560;DHT22;11958;50.836;4.438;2022-08-19T05:22:11;19.10;74.50
23560;DHT22;11958;50.836;4.438;2022-08-19T05:24:55;19.10;74.50
23560;DHT22;11958;50.836;4.438;2022-08-19T05:27:21;19.20;74.70
23560;DHT22;11958;50.836;4.438;2022-08-19T05:29:46;19.30;74.10
23560;DHT22;11958;50.836;4.438;2022-08-19T05:32:12;19.20;74.80
23560;DHT22;11958;50.836;4.438;2022-08-19T05:34:38;19.00;74.90
23560;DHT22;11958;50.836;4.438;2022-08-19T05:37:04;19.20;74.90
23560;DHT22;11958;50.836;4.438;2022-08-19T05:39:32;19.00;74.90
23560;DHT22;11958;50.836;4.438;2022-08-19T05:42:01;19.00;75.70
23560;DHT22;11958;50.836;4.438;2022-08-19T05:44:30;19.00;74.40
23560;DHT22;11958;50.836;4.438;2022-08-19T05:47:01;18.90;75.20
23560;DHT22;11958;50.836;4.438;2022-08-19T05:49:28;18.90;75.50
23560;DHT22;11958;50.836;4.438;2022-08-19T05:51:53;19.00;75.30
23560;DHT22;11958;50.836;4.438;2022-08-19T05:54:21;19.30;74.30
23560;DHT22;11958;50.836;4.438;2022-08-19T05:56:49;19.30;74.00
23560;DHT22;11958;50.836;4.438;2022-08-19T05:59:16;19.30;74.60
23560;DHT22;11958;50.836;4.438;2022-08-19T06:01:44;19.70;73.00
23560;DHT22;11958;50.836;4.438;2022-08-19T06:04:12;19.70;72.30
23560;DHT22;11958;50.836;4.438;2022-08-19T06:06:48;19.70;73.30
23560;DHT22;11958;50.836;4.438;2022-08-19T06:09:14;20.00;71.60
23560;DHT22;11958;50.836;4.438;2022-08-19T06:11:46;20.00;72.10
23560;DHT22;11958;50.836;4.438;2022-08-19T06:14:15;20.00;72.20
23560;DHT22;11958;50.836;4.438;2022-08-19T06:16:43;20.10;71.70
23560;DHT22;11958;50.836;4.438;2022-08-19T06:19:14;20.00;72.60
23560;DHT22;11958;50.836;4.438;2022-08-19T06:21:43;20.00;72.20
23560;DHT22;11958;50.836;4.438;2022-08-19T06:24:11;20.10;72.00
23560;DHT22;11958;50.836;4.438;2022-08-19T06:26:40;20.00;71.90
23560;DHT22;11958;50.836;4.438;2022-08-19T06:29:07;20.10;72.40
23560;DHT22;11958;50.836;4.438;2022-08-19T06:31:35;20.30;71.50
23560;DHT22;11958;50.836;4.438;2022-08-19T06:34:03;20.30;71.50
23560;DHT22;11958;50.836;4.438;2022-08-19T06:36:41;20.30;71.90
23560;DHT22;11958;50.836;4.438;2022-08-19T06:39:12;20.40;72.20
23560;DHT22;11958;50.836;4.438;2022-08-19T06:41:40;20.60;71.80
23560;DHT22;11958;50.836;4.438;2022-08-19T06:44:06;20.70;70.80
23560;DHT22;11958;50.836;4.438;2022-08-19T06:46:32;20.80;70.80
23560;DHT22;11958;50.836;4.438;2022-08-19T06:48:58;20.80;70.70
23560;DHT22;11958;50.836;4.438;2022-08-19T06:51:24;21.30;68.50
23560;DHT22;11958;50.836;4.438;2022-08-19T06:53:53;21.10;68.70
23560;DHT22;11958;50.836;4.438;2022-08-19T06:56:26;21.20;68.90
23560;DHT22;11958;50.836;4.438;2022-08-19T06:58:59;21.20;68.40
23560;DHT22;11958;50.836;4.438;2022-08-19T07:01:25;21.30;68.80
23560;DHT22;11958;50.836;4.438;2022-08-19T07:03:50;21.10;68.80
23560;DHT22;11958;50.836;4.438;2022-08-19T07:06:17;21.30;68.60
23560;DHT22;11958;50.836;4.438;2022-08-19T07:08:47;21.30;68.40
23560;DHT22;11958;50.836;4.438;2022-08-19T07:11:15;21.40;67.60
23560;DHT22;11958;50.836;4.438;2022-08-19T07:13:41;21.50;68.50
23560;DHT22;11958;50.836;4.438;2022-08-19T07:16:14;21.50;68.00
23560;DHT22;11958;50.836;4.438;2022-08-19T07:18:40;21.40;68.60
23560;DHT22;11958;50.836;4.438;2022-08-19T07:21:12;21.40;68.70
23560;DHT22;11958;50.836;4.438;2022-08-19T07:23:38;21.50;69.10
23560;DHT22;11958;50.836;4.438;2022-08-19T07:26:25;21.80;68.20
23560;DHT22;11958;50.836;4.438;2022-08-19T07:28:51;21.50;68.20
23560;DHT22;11958;50.836;4.438;2022-08-19T07:31:19;21.60;68.90
23560;DHT22;11958;50.836;4.438;2022-08-19T07:33:47;21.90;68.00
23560;DHT22;11958;50.836;4.438;2022-08-19T07:36:15;21.90;67.10
23560;DHT22;11958;50.836;4.438;2022-08-19T07:38:44;21.90;67.60
23560;DHT22;11958;50.836;4.438;2022-08-19T07:41:12;21.50;68.70
23560;DHT22;11958;50.836;4.438;2022-08-19T07:43:39;21.80;68.30
23560;DHT22;11958;50.836;4.438;2022-08-19T07:46:05;22.20;67.20
23560;DHT22;11958;50.836;4.438;2022-08-19T07:48:32;22.10;67.90
23560;DHT22;11958;50.836;4.438;2022-08-19T07:51:00;22.40;67.00
23560;DHT22;11958;50.836;4.438;2022-08-19T07:53:31;22.40;66.40
23560;DHT22;11958;50.836;4.438;2022-08-19T07:55:57;22.60;65.90
23560;DHT22;11958;50.836;4.438;2022-08-19T07:58:34;22.40;66.80
23560;DHT22;11958;50.836;4.438;2022-08-19T08:01:02;22.60;66.20
23560;DHT22;11958;50.836;4.438;2022-08-19T08:03:28;22.70;65.90
23560;DHT22;11958;50.836;4.438;2022-08-19T08:06:14;22.70;66.10
23560;DHT22;11958;50.836;4.438;2022-08-19T08:08:59;22.50;67.00
23560;DHT22;11958;50.836;4.438;2022-08-19T08:11:42;22.80;65.80
23560;DHT22;11958;50.836;4.438;2022-08-19T08:14:14;22.80;66.30
23560;DHT22;11958;50.836;4.438;2022-08-19T08:16:40;23.00;65.10
23560;DHT22;11958;50.836;4.438;2022-08-19T08:21:42;23.30;63.80
23560;DHT22;11958;50.836;4.438;2022-08-19T08:24:08;23.20;64.00
23560;DHT22;11958;50.836;4.438;2022-08-19T08:26:34;23.40;63.50
23560;DHT22;11958;50.836;4.438;2022-08-19T08:29:00;23.60;61.70
23560;DHT22;11958;50.836;4.438;2022-08-19T08:31:25;23.50;63.00
23560;DHT22;11958;50.836;4.438;2022-08-19T08:33:54;23.70;61.30
23560;DHT22;11958;50.836;4.438;2022-08-19T08:36:20;23.50;63.70
23560;DHT22;11958;50.836;4.438;2022-08-19T08:39:01;23.70;61.20
23560;DHT22;11958;50.836;4.438;2022-08-19T08:44:03;23.40;63.60
23560;DHT22;11958;50.836;4.438;2022-08-19T08:46:58;23.30;64.00
23560;DHT22;11958;50.836;4.438;2022-08-19T08:49:57;23.30;64.20
23560;DHT22;11958;50.836;4.438;2022-08-19T08:52:26;23.20;64.30
23560;DHT22;11958;50.836;4.438;2022-08-19T09:01:20;23.30;64.80
23560;DHT22;11958;50.836;4.438;2022-08-19T09:03:46;23.40;64.40
23560;DHT22;11958;50.836;4.438;2022-08-19T09:18:00;23.60;64.30
23560;DHT22;11958;50.836;4.438;2022-08-19T09:20:45;23.40;66.10
23560;DHT22;11958;50.836;4.438;2022-08-19T09:23:21;23.40;65.50
23560;DHT22;11958;50.836;4.438;2022-08-19T09:26:11;23.60;65.10
23560;DHT22;11958;50.836;4.438;2022-08-19T09:28:43;23.70;63.00
23560;DHT22;11958;50.836;4.438;2022-08-19T09:31:23;23.80;62.40
23560;DHT22;11958;50.836;4.438;2022-08-19T09:33:50;23.50;64.70
23560;DHT22;11958;50.836;4.438;2022-08-19T09:36:18;23.70;63.10
23560;DHT22;11958;50.836;4.438;2022-08-19T09:38:45;24.00;61.90
23560;DHT22;11958;50.836;4.438;2022-08-19T09:41:17;24.00;61.80
23560;DHT22;11958;50.836;4.438;2022-08-19T09:43:46;24.00;61.20
23560;DHT22;11958;50.836;4.438;2022-08-19T09:46:12;23.80;63.00
23560;DHT22;11958;50.836;4.438;2022-08-19T09:48:41;23.80;63.20
23560;DHT22;11958;50.836;4.438;2022-08-19T09:51:12;24.10;63.10
23560;DHT22;11958;50.836;4.438;2022-08-19T09:53:42;24.20;61.40
23560;DHT22;11958;50.836;4.438;2022-08-19T09:56:09;24.00;62.20
23560;DHT22;11958;50.836;4.438;2022-08-19T09:58:35;23.80;62.20
23560;DHT22;11958;50.836;4.438;2022-08-19T10:01:02;24.00;62.80
23560;DHT22;11958;50.836;4.438;2022-08-19T10:03:29;24.10;62.20
23560;DHT22;11958;50.836;4.438;2022-08-19T10:05:57;24.10;62.20
23560;DHT22;11958;50.836;4.438;2022-08-19T10:08:29;24.00;62.10
23560;DHT22;11958;50.836;4.438;2022-08-19T10:10:55;24.10;61.80
23560;DHT22;11958;50.836;4.438;2022-08-19T10:13:24;23.80;63.20
23560;DHT22;11958;50.836;4.438;2022-08-19T10:15:52;24.00;62.70
23560;DHT22;11958;50.836;4.438;2022-08-19T10:18:20;24.00;61.70
23560;DHT22;11958;50.836;4.438;2022-08-19T10:20:48;23.90;62.00
23560;DHT22;11958;50.836;4.438;2022-08-19T10:23:14;24.20;61.30
23560;DHT22;11958;50.836;4.438;2022-08-19T10:25:43;24.60;60.00
23560;DHT22;11958;50.836;4.438;2022-08-19T10:28:09;24.50;60.10
23560;DHT22;11958;50.836;4.438;2022-08-19T10:30:38;24.30;60.30
23560;DHT22;11958;50.836;4.438;2022-08-19T10:33:05;24.50;60.80
23560;DHT22;11958;50.836;4.438;2022-08-19T10:35:30;24.30;60.70
23560;DHT22;11958;50.836;4.438;2022-08-19T10:37:56;24.20;61.80
23560;DHT22;11958;50.836;4.438;2022-08-19T10:40:27;24.40;60.70
23560;DHT22;11958;50.836;4.438;2022-08-19T10:42:54;24.70;60.00
23560;DHT22;11958;50.836;4.438;2022-08-19T10:45:21;24.60;59.70
23560;DHT22;11958;50.836;4.438;2022-08-19T10:47:47;24.60;60.00
23560;DHT22;11958;50.836;4.438;2022-08-19T10:50:13;24.70;60.10
23560;DHT22;11958;50.836;4.438;2022-08-19T10:52:57;24.70;60.40
23560;DHT22;11958;50.836;4.438;2022-08-19T10:55:24;24.60;60.40
23560;DHT22;11958;50.836;4.438;2022-08-19T10:58:13;24.60;61.30
23560;DHT22;11958;50.836;4.438;2022-08-19T11:00:40;24.50;61.30
23560;DHT22;11958;50.836;4.438;2022-08-19T11:03:06;24.70;60.20
23560;DHT22;11958;50.836;4.438;2022-08-19T11:05:31;24.70;60.60
23560;DHT22;11958;50.836;4.438;2022-08-19T11:07:57;24.60;60.60
23560;DHT22;11958;50.836;4.438;2022-08-19T11:10:22;24.40;61.20
23560;DHT22;11958;50.836;4.438;2022-08-19T11:12:49;24.80;60.60
23560;DHT22;11958;50.836;4.438;2022-08-19T11:15:20;24.60;61.10
23560;DHT22;11958;50.836;4.438;2022-08-19T11:17:45;24.60;60.60
23560;DHT22;11958;50.836;4.438;2022-08-19T11:20:12;24.70;60.80
23560;DHT22;11958;50.836;4.438;2022-08-19T11:22:39;24.80;60.70
23560;DHT22;11958;50.836;4.438;2022-08-19T11:25:06;25.00;59.90
23560;DHT22;11958;50.836;4.438;2022-08-19T11:27:32;25.00;59.50
23560;DHT22;11958;50.836;4.438;2022-08-19T11:29:59;24.80;60.20
23560;DHT22;11958;50.836;4.438;2022-08-19T11:32:25;24.70;60.00
23560;DHT22;11958;50.836;4.438;2022-08-19T11:34:51;24.60;61.30
23560;DHT22;11958;50.836;4.438;2022-08-19T11:37:17;24.50;61.30
23560;DHT22;11958;50.836;4.438;2022-08-19T11:39:42;24.20;61.80
23560;DHT22;11958;50.836;4.438;2022-08-19T11:42:08;24.10;62.50
23560;DHT22;11958;50.836;4.438;2022-08-19T11:44:53;23.70;64.20
23560;DHT22;11958;50.836;4.438;2022-08-19T11:47:19;23.60;64.40
23560;DHT22;11958;50.836;4.438;2022-08-19T11:49:46;23.60;64.90
23560;DHT22;11958;50.836;4.438;2022-08-19T11:52:12;24.00;64.10
23560;DHT22;11958;50.836;4.438;2022-08-19T11:54:40;24.20;62.80
23560;DHT22;11958;50.836;4.438;2022-08-19T11:57:06;24.30;62.60
23560;DHT22;11958;50.836;4.438;2022-08-19T11:59:32;24.30;61.90
23560;DHT22;11958;50.836;4.438;2022-08-19T12:01:57;24.50;62.00
23560;DHT22;11958;50.836;4.438;2022-08-19T12:04:24;24.50;61.10
23560;DHT22;11958;50.836;4.438;2022-08-19T12:06:50;24.50;61.20
23560;DHT22;11958;50.836;4.438;2022-08-19T12:09:16;24.90;60.40
23560;DHT22;11958;50.836;4.438;2022-08-19T12:11:43;25.40;59.10
23560;DHT22;11958;50.836;4.438;2022-08-19T12:14:11;25.60;57.70
23560;DHT22;11958;50.836;4.438;2022-08-19T12:16:37;26.20;56.90
23560;DHT22;11958;50.836;4.438;2022-08-19T12:19:04;26.70;53.90
23560;DHT22;11958;50.836;4.438;2022-08-19T12:21:32;27.20;52.30
23560;DHT22;11958;50.836;4.438;2022-08-19T12:23:59;27.30;50.80
23560;DHT22;11958;50.836;4.438;2022-08-19T12:26:27;27.30;51.40
23560;DHT22;11958;50.836;4.438;2022-08-19T12:28:53;26.90;51.50
23560;DHT22;11958;50.836;4.438;2022-08-19T12:31:19;26.90;52.00
23560;DHT22;11958;50.836;4.438;2022-08-19T12:33:46;26.70;52.40
23560;DHT22;11958;50.836;4.438;2022-08-19T12:36:13;27.00;52.40
23560;DHT22;11958;50.836;4.438;2022-08-19T12:38:39;26.50;53.50
23560;DHT22;11958;50.836;4.438;2022-08-19T12:41:10;26.30;54.30
23560;DHT22;11958;50.836;4.438;2022-08-19T12:43:36;26.50;53.30
23560;DHT22;11958;50.836;4.438;2022-08-19T12:46:04;26.70;51.90
23560;DHT22;11958;50.836;4.438;2022-08-19T12:48:34;26.80;52.10
23560;DHT22;11958;50.836;4.438;2022-08-19T12:51:00;26.90;51.90
23560;DHT22;11958;50.836;4.438;2022-08-19T12:53:27;27.20;52.00
23560;DHT22;11958;50.836;4.438;2022-08-19T12:55:57;27.50;50.60
23560;DHT22;11958;50.836;4.438;2022-08-19T12:58:25;28.00;49.90
23560;DHT22;11958;50.836;4.438;2022-08-19T13:00:51;27.80;49.30
23560;DHT22;11958;50.836;4.438;2022-08-19T13:03:17;27.90;49.90
23560;DHT22;11958;50.836;4.438;2022-08-19T13:05:42;27.90;48.60
23560;DHT22;11958;50.836;4.438;2022-08-19T13:08:08;27.80;48.60
23560;DHT22;11958;50.836;4.438;2022-08-19T13:10:35;27.80;48.40
23560;DHT22;11958;50.836;4.438;2022-08-19T13:13:07;28.00;48.70
23560;DHT22;11958;50.836;4.438;2022-08-19T13:15:38;28.00;48.70
23560;DHT22;11958;50.836;4.438;2022-08-19T13:18:07;29.50;45.00
23560;DHT22;11958;50.836;4.438;2022-08-19T13:20:35;31.00;40.90
23560;DHT22;11958;50.836;4.438;2022-08-19T13:23:01;30.90;41.00
23560;DHT22;11958;50.836;4.438;2022-08-19T13:25:26;30.30;42.40
23560;DHT22;11958;50.836;4.438;2022-08-19T13:27:52;29.90;41.60
23560;DHT22;11958;50.836;4.438;2022-08-19T13:30:19;29.40;43.30
23560;DHT22;11958;50.836;4.438;2022-08-19T13:33:04;28.60;45.80
23560;DHT22;11958;50.836;4.438;2022-08-19T13:38:09;27.70;48.00
23560;DHT22;11958;50.836;4.438;2022-08-19T13:40:35;27.60;47.60
23560;DHT22;11958;50.836;4.438;2022-08-19T13:43:03;27.40;48.50
23560;DHT22;11958;50.836;4.438;2022-08-19T13:45:31;27.60;48.20
23560;DHT22;11958;50.836;4.438;2022-08-19T13:47:59;27.50;48.60
23560;DHT22;11958;50.836;4.438;2022-08-19T13:50:30;27.40;49.10
23560;DHT22;11958;50.836;4.438;2022-08-19T13:52:59;28.40;47.20
23560;DHT22;11958;50.836;4.438;2022-08-19T13:55:26;28.70;45.90
23560;DHT22;11958;50.836;4.438;2022-08-19T13:57:54;28.90;46.00
23560;DHT22;11958;50.836;4.438;2022-08-19T14:00:21;30.00;42.50
23560;DHT22;11958;50.836;4.438;2022-08-19T14:02:52;31.00;40.30
23560;DHT22;11958;50.836;4.438;2022-08-19T14:05:19;30.80;39.70
23560;DHT22;11958;50.836;4.438;2022-08-19T14:07:45;30.30;42.50
23560;DHT22;11958;50.836;4.438;2022-08-19T14:10:12;29.80;42.70
23560;DHT22;11958;50.836;4.438;2022-08-19T14:12:38;29.70;43.00
23560;DHT22;11958;50.836;4.438;2022-08-19T14:15:07;28.90;44.70
23560;DHT22;11958;50.836;4.438;2022-08-19T14:17:33;28.10;46.40
23560;DHT22;11958;50.836;4.438;2022-08-19T14:20:01;27.40;48.70
23560;DHT22;11958;50.836;4.438;2022-08-19T14:22:31;27.00;49.60
23560;DHT22;11958;50.836;4.438;2022-08-19T14:24:57;26.40;51.70
23560;DHT22;11958;50.836;4.438;2022-08-19T14:27:23;26.10;54.50
23560;DHT22;11958;50.836;4.438;2022-08-19T14:29:49;25.80;55.50
23560;DHT22;11958;50.836;4.438;2022-08-19T14:32:15;25.50;56.70
23560;DHT22;11958;50.836;4.438;2022-08-19T14:34:40;25.70;56.90
23560;DHT22;11958;50.836;4.438;2022-08-19T14:37:06;26.10;56.10
23560;DHT22;11958;50.836;4.438;2022-08-19T14:39:31;26.30;55.60
23560;DHT22;11958;50.836;4.438;2022-08-19T14:41:57;26.00;56.30
23560;DHT22;11958;50.836;4.438;2022-08-19T14:44:23;25.90;56.70
23560;DHT22;11958;50.836;4.438;2022-08-19T14:46:49;25.40;58.40
23560;DHT22;11958;50.836;4.438;2022-08-19T14:49:15;25.00;59.40
23560;DHT22;11958;50.836;4.438;2022-08-19T14:51:40;25.00;59.80
23560;DHT22;11958;50.836;4.438;2022-08-19T14:54:06;24.90;60.20
23560;DHT22;11958;50.836;4.438;2022-08-19T14:56:32;24.70;60.90
23560;DHT22;11958;50.836;4.438;2022-08-19T14:58:58;24.40;62.20
23560;DHT22;11958;50.836;4.438;2022-08-19T15:01:26;24.40;62.50
23560;DHT22;11958;50.836;4.438;2022-08-19T15:03:52;24.40;62.30
23560;DHT22;11958;50.836;4.438;2022-08-19T15:06:22;24.80;62.10
23560;DHT22;11958;50.836;4.438;2022-08-19T15:08:48;25.10;60.70
23560;DHT22;11958;50.836;4.438;2022-08-19T15:11:18;26.00;58.40
23560;DHT22;11958;50.836;4.438;2022-08-19T15:13:46;26.30;58.10
23560;DHT22;11958;50.836;4.438;2022-08-19T15:16:13;26.60;55.50
23560;DHT22;11958;50.836;4.438;2022-08-19T15:18:41;26.60;55.40
23560;DHT22;11958;50.836;4.438;2022-08-19T15:21:11;26.60;55.40
23560;DHT22;11958;50.836;4.438;2022-08-19T15:23:38;26.40;55.60
23560;DHT22;11958;50.836;4.438;2022-08-19T15:26:05;26.10;57.00
23560;DHT22;11958;50.836;4.438;2022-08-19T15:28:31;25.90;57.90
23560;DHT22;11958;50.836;4.438;2022-08-19T15:30:58;26.00;58.00
23560;DHT22;11958;50.836;4.438;2022-08-19T15:33:24;25.90;57.60
23560;DHT22;11958;50.836;4.438;2022-08-19T15:35:49;25.90;58.50
23560;DHT22;11958;50.836;4.438;2022-08-19T15:38:16;25.70;58.30
23560;DHT22;11958;50.836;4.438;2022-08-19T15:40:44;26.00;56.80
23560;DHT22;11958;50.836;4.438;2022-08-19T15:43:10;26.10;56.80
23560;DHT22;11958;50.836;4.438;2022-08-19T15:45:36;25.90;57.60
23560;DHT22;11958;50.836;4.438;2022-08-19T15:48:03;26.00;58.00
23560;DHT22;11958;50.836;4.438;2022-08-19T15:50:30;26.10;57.30
23560;DHT22;11958;50.836;4.438;2022-08-19T15:53:03;26.10;56.70
23560;DHT22;11958;50.836;4.438;2022-08-19T15:55:33;25.80;58.40
23560;DHT22;11958;50.836;4.438;2022-08-19T15:58:10;25.60;58.90
23560;DHT22;11958;50.836;4.438;2022-08-19T16:00:59;25.50;58.60
23560;DHT22;11958;50.836;4.438;2022-08-19T16:03:43;25.20;59.70
23560;DHT22;11958;50.836;4.438;2022-08-19T16:06:28;25.20;60.60